This is the latest recevied weather packets stored in our database for station/object DJ0JJ-11. If no packets are shown the sender has not sent any weather packets the latest 10 day(s).
| Time | Temp. | Humidity | Pressure | Rain* | Wind** | Luminosity | Snow |
|---|---|---|---|---|---|---|---|
| 1787985331 | 18.89° C | 75% | 1019 hPa | - | - | - | - |
| 1787984431 | 17.78° C | 77% | 1018.9 hPa | - | - | - | - |
| 1787983531 | 17.22° C | 78% | 1018.9 hPa | - | - | - | - |
| 1787982631 | 17.22° C | 80% | 1018.9 hPa | - | - | - | - |
| 1787981731 | 16.67° C | 80% | 1018.9 hPa | - | - | - | - |
| 1787980831 | 16.67° C | 80% | 1018.8 hPa | - | - | - | - |
| 1787979931 | 16.67° C | 80% | 1018.7 hPa | - | - | - | - |
| 1787979031 | 16.11° C | 82% | 1018.7 hPa | - | - | - | - |
| 1787978131 | 16.67° C | 80% | 1018.5 hPa | - | - | - | - |
| 1787977231 | 16.67° C | 79% | 1018.7 hPa | - | - | - | - |
| 1787976330 | 16.67° C | 80% | 1018.7 hPa | - | - | - | - |
| 1787975430 | 16.67° C | 81% | 1018.7 hPa | - | - | - | - |
| 1787974530 | 16.67° C | 80% | 1018.6 hPa | - | - | - | - |
| 1787973630 | 16.67° C | 82% | 1018.5 hPa | - | - | - | - |
| 1787972730 | 17.22° C | 80% | 1018.5 hPa | - | - | - | - |
| 1787971830 | 17.22° C | 81% | 1018.6 hPa | - | - | - | - |
| 1787970929 | 16.67° C | 81% | 1018.5 hPa | - | - | - | - |
| 1787970029 | 17.22° C | 79% | 1018.6 hPa | - | - | - | - |
| 1787969129 | 17.78° C | 77% | 1018.7 hPa | - | - | - | - |
| 1787968232 | 17.78° C | 76% | 1018.7 hPa | - | - | - | - |
| 1787967332 | 17.78° C | 77% | 1018.8 hPa | - | - | - | - |
| 1787966432 | 17.78° C | 77% | 1018.9 hPa | - | - | - | - |
| 1787965532 | 18.33° C | 77% | 1018.8 hPa | - | - | - | - |
| 1787964632 | 18.33° C | 80% | 1018.9 hPa | - | - | - | - |
| 1787963732 | 18.33° C | 81% | 1018.9 hPa | - | - | - | - |
* Rain since midnight (hover to see other rain measurements)
** Current wind speed in m/s (hover to see current wind gust speed)